Time;durP1;ratioP1;P1;durP2;ratioP2;P2;SDS_P1;SDS_P2;PMS_P1;PMS_P2;Temp;Humidity;BMP_temperature;BMP_pressure;BME280_temperature;BME280_humidity;BME280_pressure;Samples;Min_cycle;Max_cycle;Signal;HPM_P1;HPM_P2
2023/07/26 00:00:37;;;;;;;;;;;;;;;11.75;100.00;101243.63;5096935;28;19923;-71
2023/07/26 00:03:02;;;;;;;;;;;;;;;11.70;100.00;101239.69;5096908;28;20024;-72
2023/07/26 00:05:28;;;;;;;;;;;;;;;11.68;100.00;101242.50;5096830;28;19920;-72
2023/07/26 00:07:54;;;;;;;;;;;;;;;11.65;100.00;101242.78;5097032;28;19955;-72
2023/07/26 00:10:19;;;;;;;;;;;;;;;11.60;100.00;101245.00;5078434;28;20342;-72
2023/07/26 00:12:44;;;;;;;;;;;;;;;11.54;100.00;101241.06;5096674;28;19974;-72
2023/07/26 00:15:09;;;;;;;;;;;;;;;11.49;100.00;101243.28;5096753;28;19920;-72
2023/07/26 00:17:35;;;;;;;;;;;;;;;11.44;100.00;101245.50;5097062;28;20357;-72
2023/07/26 00:20:00;;;;;;;;;;;;;;;11.38;100.00;101241.56;5096332;28;20410;-72
2023/07/26 00:22:25;;;;;;;;;;;;;;;11.33;100.00;101234.94;5096469;28;19920;-72
2023/07/26 00:24:51;;;;;;;;;;;;;;;11.28;100.00;101232.69;5096594;28;19938;-72
2023/07/26 00:27:17;;;;;;;;;;;;;;;11.22;100.00;101231.38;5096388;28;19927;-72
2023/07/26 00:29:42;;;;;;;;;;;;;;;11.20;100.00;101227.19;5096420;28;19920;-72
2023/07/26 00:32:07;;;;;;;;;;;;;;;11.16;100.00;101228.44;5096270;28;19920;-72
2023/07/26 00:34:34;;;;;;;;;;;;;;;11.11;100.00;101236.81;5096513;28;19920;-72
2023/07/26 00:37:03;;;;;;;;;;;;;;;11.07;100.00;101227.41;5096153;28;19927;-71
2023/07/26 00:39:29;;;;;;;;;;;;;;;11.04;100.00;101228.50;5095973;28;19920;-71
2023/07/26 00:41:54;;;;;;;;;;;;;;;11.01;100.00;101231.44;5096103;28;20344;-72
2023/07/26 00:44:19;;;;;;;;;;;;;;;10.98;100.00;101222.88;5095681;28;19920;-72
2023/07/26 00:46:45;;;;;;;;;;;;;;;10.94;100.00;101228.47;5095789;28;19920;-71
2023/07/26 00:49:10;;;;;;;;;;;;;;;10.90;100.00;101226.22;5096180;28;19923;-72
2023/07/26 00:51:37;;;;;;;;;;;;;;;10.86;100.00;101240.75;5096065;28;19972;-71
2023/07/26 00:54:03;;;;;;;;;;;;;;;10.81;100.00;101230.50;5077960;28;19932;-71
2023/07/26 00:56:29;;;;;;;;;;;;;;;10.76;100.00;101230.91;5096255;28;19924;-71
2023/07/26 00:58:54;;;;;;;;;;;;;;;10.74;100.00;101232.00;5095741;28;19965;-71
2023/07/26 01:01:19;;;;;;;;;;;;;;;10.69;100.00;101224.41;5095225;28;19928;-71
2023/07/26 01:03:44;;;;;;;;;;;;;;;10.65;100.00;101224.78;5095605;28;19924;-72
2023/07/26 01:06:10;;;;;;;;;;;;;;;10.62;100.00;101223.22;5096188;28;19923;-71
2023/07/26 01:08:58;;;;;;;;;;;;;;;10.57;100.00;101226.28;5095555;28;20330;-71
2023/07/26 01:11:35;;;;;;;;;;;;;;;10.55;100.00;101222.06;5095571;28;19923;-72
2023/07/26 01:14:05;;;;;;;;;;;;;;;10.50;100.00;101226.94;5095217;28;19916;-72
2023/07/26 01:16:31;;;;;;;;;;;;;;;10.46;100.00;101228.16;5095449;28;19939;-72
2023/07/26 01:18:56;;;;;;;;;;;;;;;10.41;100.00;101226.72;5095378;28;20360;-71
2023/07/26 01:21:21;;;;;;;;;;;;;;;10.38;100.00;101223.47;5095254;28;19924;-71
2023/07/26 01:23:47;;;;;;;;;;;;;;;10.35;100.00;101218.41;5095208;28;19917;-71
2023/07/26 01:26:12;;;;;;;;;;;;;;;10.32;100.00;101227.47;5095217;28;20419;-71
2023/07/26 01:28:37;;;;;;;;;;;;;;;10.30;100.00;101217.91;5094849;28;19923;-71
2023/07/26 01:31:04;;;;;;;;;;;;;;;10.28;100.00;101220.69;5094969;28;19920;-71
2023/07/26 01:33:31;;;;;;;;;;;;;;;10.26;100.00;101219.16;5095022;28;19916;-71
2023/07/26 01:35:58;;;;;;;;;;;;;;;10.20;100.00;101226.66;5094785;28;19920;-70
2023/07/26 01:38:24;;;;;;;;;;;;;;;10.15;100.00;101218.25;5094966;28;19999;-72
2023/07/26 01:40:49;;;;;;;;;;;;;;;10.11;100.00;101218.63;5076842;28;19942;-72
2023/07/26 01:43:15;;;;;;;;;;;;;;;10.07;100.00;101223.31;5094952;28;20427;-72
2023/07/26 01:45:40;;;;;;;;;;;;;;;10.04;100.00;101212.94;5076634;28;19924;-72
2023/07/26 01:48:05;;;;;;;;;;;;;;;9.99;100.00;101210.66;5094879;28;20367;-72
2023/07/26 01:50:31;;;;;;;;;;;;;;;9.97;100.00;101207.31;5094439;28;20240;-71
2023/07/26 01:52:56;;;;;;;;;;;;;;;9.92;100.00;101214.81;5094665;28;19924;-72
2023/07/26 01:55:21;;;;;;;;;;;;;;;9.91;100.00;101218.41;5094966;28;19931;-72
2023/07/26 01:57:47;;;;;;;;;;;;;;;9.88;100.00;101219.53;5095071;28;20030;-72
2023/07/26 02:00:12;;;;;;;;;;;;;;;9.86;100.00;101221.44;5094608;28;20280;-72
2023/07/26 02:02:37;;;;;;;;;;;;;;;9.84;100.00;101214.59;5094883;28;19916;-72
2023/07/26 02:05:03;;;;;;;;;;;;;;;9.81;100.00;101212.19;5094166;28;19927;-72
2023/07/26 02:07:28;;;;;;;;;;;;;;;9.79;100.00;101216.78;5094094;28;19916;-72
2023/07/26 02:09:53;;;;;;;;;;;;;;;9.78;100.00;101217.72;5094346;28;19916;-72
2023/07/26 02:12:18;;;;;;;;;;;;;;;9.74;100.00;101222.47;5093392;28;19920;-71
2023/07/26 02:14:44;;;;;;;;;;;;;;;9.73;100.00;101218.09;5094479;28;20023;-72
2023/07/26 02:17:09;;;;;;;;;;;;;;;9.71;100.00;101220.06;5094365;28;19927;-74
2023/07/26 02:19:35;;;;;;;;;;;;;;;9.68;100.00;101220.31;5076729;28;19916;-74
2023/07/26 02:22:00;;;;;;;;;;;;;;;9.64;100.00;101216.19;5094942;28;20408;-74
2023/07/26 02:24:25;;;;;;;;;;;;;;;9.61;100.00;101219.09;5094130;28;20296;-75
2023/07/26 02:26:50;;;;;;;;;;;;;;;9.58;100.00;101216.69;5094613;28;19920;-74
2023/07/26 02:29:16;;;;;;;;;;;;;;;9.57;100.00;101213.19;5094240;28;19920;-75
2023/07/26 02:31:41;;;;;;;;;;;;;;;9.53;100.00;101215.25;5094302;28;20394;-74
2023/07/26 02:34:06;;;;;;;;;;;;;;;9.56;100.00;101216.00;5076559;28;19920;-75
2023/07/26 02:36:31;;;;;;;;;;;;;;;9.59;100.00;101215.75;5094198;28;20275;-74
2023/07/26 02:38:56;;;;;;;;;;;;;;;9.61;100.00;101209.31;5094095;28;19924;-75
2023/07/26 02:41:22;;;;;;;;;;;;;;;9.68;100.00;101201.69;5076797;28;20302;-75
2023/07/26 02:43:47;;;;;;;;;;;;;;;9.76;100.00;101212.53;5094256;28;19920;-74
2023/07/26 02:46:12;;;;;;;;;;;;;;;9.86;100.00;101212.66;5094021;28;19924;-75
2023/07/26 02:48:37;;;;;;;;;;;;;;;9.98;100.00;101203.66;5093911;28;19920;-75
2023/07/26 02:51:03;;;;;;;;;;;;;;;10.09;100.00;101209.91;5093860;28;19927;-74
2023/07/26 02:53:28;;;;;;;;;;;;;;;10.19;100.00;101209.00;5076630;28;20421;-74
2023/07/26 02:55:53;;;;;;;;;;;;;;;10.28;100.00;101211.88;5093813;28;19920;-74
2023/07/26 02:58:19;;;;;;;;;;;;;;;10.34;100.00;101212.25;5075875;28;19920;-75
2023/07/26 03:00:44;;;;;;;;;;;;;;;10.39;100.00;101210.06;5093801;28;20398;-74
2023/07/26 03:03:09;;;;;;;;;;;;;;;10.47;100.00;101205.91;5093798;28;19922;-74
2023/07/26 03:05:37;;;;;;;;;;;;;;;10.52;100.00;101215.16;5093800;28;20271;-75
2023/07/26 03:08:03;;;;;;;;;;;;;;;10.58;100.00;101216.47;5093807;28;19917;-75
2023/07/26 03:10:28;;;;;;;;;;;;;;;10.65;100.00;101214.16;5093916;28;19927;-74
2023/07/26 03:12:54;;;;;;;;;;;;;;;10.68;100.00;101205.91;5093688;28;19924;-75
2023/07/26 03:15:19;;;;;;;;;;;;;;;10.74;100.00;101206.22;5094275;28;19966;-75
2023/07/26 03:17:45;;;;;;;;;;;;;;;10.81;100.00;101205.69;5093578;28;19916;-75
2023/07/26 03:20:10;;;;;;;;;;;;;;;10.85;100.00;101210.63;5094415;28;19919;-75
2023/07/26 03:22:35;;;;;;;;;;;;;;;10.90;100.00;101207.56;5094135;28;19920;-75
2023/07/26 03:25:01;;;;;;;;;;;;;;;10.94;100.00;101206.31;5097737;28;20389;-75
2023/07/26 03:27:26;;;;;;;;;;;;;;;10.98;100.00;101207.75;5097740;28;20288;-75
2023/07/26 03:29:51;;;;;;;;;;;;;;;10.99;100.00;101213.91;5097619;28;19947;-75
2023/07/26 03:32:16;;;;;;;;;;;;;;;11.04;100.00;101217.84;5097817;28;19920;-75
2023/07/26 03:34:42;;;;;;;;;;;;;;;11.07;100.00;101214.94;5097534;28;20299;-75
2023/07/26 03:37:07;;;;;;;;;;;;;;;11.08;100.00;101208.63;5097582;28;19927;-74
2023/07/26 03:39:32;;;;;;;;;;;;;;;11.11;100.00;101208.38;5097508;28;19916;-74
2023/07/26 03:41:58;;;;;;;;;;;;;;;11.16;100.00;101209.78;5079438;28;19923;-75
2023/07/26 03:44:23;;;;;;;;;;;;;;;11.19;100.00;101199.69;5097422;28;19916;-75
2023/07/26 03:46:48;;;;;;;;;;;;;;;11.24;100.00;101202.81;5097297;28;20360;-75
2023/07/26 03:49:14;;;;;;;;;;;;;;;11.28;100.00;101201.56;5097312;28;20426;-75
2023/07/26 03:51:39;;;;;;;;;;;;;;;11.32;100.00;101195.97;5096761;28;19959;-75
2023/07/26 03:54:04;;;;;;;;;;;;;;;11.33;100.00;101190.50;5097169;28;19916;-75
2023/07/26 03:56:29;;;;;;;;;;;;;;;11.37;100.00;101191.06;5097142;28;19926;-75
2023/07/26 03:58:55;;;;;;;;;;;;;;;11.36;100.00;101186.72;5096773;28;19924;-74
2023/07/26 04:01:20;;;;;;;;;;;;;;;11.36;100.00;101189.38;5097045;28;20378;-75
2023/07/26 04:03:45;;;;;;;;;;;;;;;11.37;100.00;101186.56;5096982;28;19920;-75
2023/07/26 04:06:11;;;;;;;;;;;;;;;11.36;100.00;101181.38;5097326;28;19920;-75
2023/07/26 04:08:36;;;;;;;;;;;;;;;11.35;100.00;101177.06;5097448;28;19945;-75
2023/07/26 04:11:02;;;;;;;;;;;;;;;11.36;100.00;101179.59;5078502;28;19924;-74
2023/07/26 04:13:28;;;;;;;;;;;;;;;11.36;100.00;101178.72;5096856;28;19927;-75
2023/07/26 04:15:53;;;;;;;;;;;;;;;11.38;100.00;101176.78;5096740;28;19920;-75
2023/07/26 04:18:19;;;;;;;;;;;;;;;11.42;100.00;101184.38;5078602;28;19920;-75
2023/07/26 04:20:44;;;;;;;;;;;;;;;11.49;100.00;101187.31;5096443;28;19965;-75
2023/07/26 04:23:09;;;;;;;;;;;;;;;11.55;100.00;101185.94;5096605;28;19978;-75
2023/07/26 04:25:34;;;;;;;;;;;;;;;11.59;100.00;101188.19;5096651;28;20379;-75
2023/07/26 04:28:00;;;;;;;;;;;;;;;11.64;100.00;101183.31;5097011;28;20296;-75
2023/07/26 04:30:25;;;;;;;;;;;;;;;11.69;100.00;101193.53;5096515;28;20372;-75
2023/07/26 04:32:50;;;;;;;;;;;;;;;11.73;100.00;101188.78;5096916;28;20009;-75
2023/07/26 04:35:15;;;;;;;;;;;;;;;11.75;100.00;101182.31;5095605;28;19923;-75
2023/07/26 04:37:41;;;;;;;;;;;;;;;11.76;100.00;101185.81;5078241;28;19920;-74
2023/07/26 04:40:07;;;;;;;;;;;;;;;11.78;100.00;101189.22;5096532;28;20007;-74
2023/07/26 04:42:32;;;;;;;;;;;;;;;11.79;100.00;101185.53;5096210;28;20011;-75
2023/07/26 04:44:57;;;;;;;;;;;;;;;11.82;100.00;101186.13;5096430;28;19931;-73
2023/07/26 04:47:24;;;;;;;;;;;;;;;11.85;100.00;101184.16;5096979;28;19998;-73
2023/07/26 04:49:49;;;;;;;;;;;;;;;11.88;100.00;101190.03;5096420;28;19943;-73
2023/07/26 04:52:15;;;;;;;;;;;;;;;11.92;100.00;101186.13;5097068;28;19924;-74
2023/07/26 04:54:40;;;;;;;;;;;;;;;11.96;100.00;101189.41;5095872;28;19926;-74
2023/07/26 04:57:05;;;;;;;;;;;;;;;12.01;100.00;101188.97;5095966;28;19927;-74
2023/07/26 04:59:30;;;;;;;;;;;;;;;12.08;100.00;101195.44;5095962;28;19921;-74
2023/07/26 05:01:56;;;;;;;;;;;;;;;12.14;100.00;101194.88;5096449;28;20426;-74
2023/07/26 05:04:21;;;;;;;;;;;;;;;12.21;100.00;101192.47;5095551;28;19924;-74
2023/07/26 05:06:46;;;;;;;;;;;;;;;12.27;100.00;101199.91;5095924;28;19920;-74
2023/07/26 05:09:11;;;;;;;;;;;;;;;12.32;100.00;101205.69;5095722;28;20356;-73
2023/07/26 05:11:37;;;;;;;;;;;;;;;12.36;100.00;101201.75;5095807;28;19973;-73
2023/07/26 05:14:02;;;;;;;;;;;;;;;12.40;100.00;101199.63;5096307;28;19967;-73
2023/07/26 05:16:27;;;;;;;;;;;;;;;12.41;100.00;101204.00;5095913;28;19920;-74
2023/07/26 05:18:57;;;;;;;;;;;;;;;12.44;100.00;101211.72;5095604;28;19928;-74
2023/07/26 05:21:22;;;;;;;;;;;;;;;12.52;100.00;101219.84;5095469;28;19976;-74
2023/07/26 05:23:47;;;;;;;;;;;;;;;12.55;100.00;101218.72;5095145;28;20380;-74
2023/07/26 05:26:13;;;;;;;;;;;;;;;12.55;100.00;101218.72;5077064;28;20434;-75
2023/07/26 05:28:38;;;;;;;;;;;;;;;12.50;100.00;101219.97;5095650;28;19938;-74
2023/07/26 05:31:04;;;;;;;;;;;;;;;12.43;100.00;101224.19;5095057;28;20348;-75
2023/07/26 05:33:29;;;;;;;;;;;;;;;12.37;100.00;101229.25;5095268;28;19942;-73
2023/07/26 05:35:54;;;;;;;;;;;;;;;12.29;100.00;101225.47;5095229;28;19916;-75
2023/07/26 05:38:19;;;;;;;;;;;;;;;12.25;100.00;101233.91;5077036;28;19924;-74
2023/07/26 05:40:45;;;;;;;;;;;;;;;12.26;100.00;101235.59;5094920;28;19928;-74
2023/07/26 05:43:10;;;;;;;;;;;;;;;12.28;100.00;101242.44;5094826;28;19978;-75
2023/07/26 05:45:35;;;;;;;;;;;;;;;12.33;100.00;101247.38;5077540;28;19920;-74
2023/07/26 05:48:01;;;;;;;;;;;;;;;12.40;100.00;101253.00;5095233;28;19920;-75
2023/07/26 05:50:26;;;;;;;;;;;;;;;12.47;100.00;101254.97;5095543;28;19973;-74
2023/07/26 05:52:51;;;;;;;;;;;;;;;12.50;100.00;101260.00;5095487;28;19939;-74
2023/07/26 05:55:17;;;;;;;;;;;;;;;12.53;100.00;101259.72;5094841;28;20269;-75
2023/07/26 05:57:42;;;;;;;;;;;;;;;12.55;100.00;101262.25;5094841;28;19920;-74
2023/07/26 06:00:07;;;;;;;;;;;;;;;12.59;100.00;101266.31;5094986;28;19935;-74
2023/07/26 06:02:33;;;;;;;;;;;;;;;12.65;100.00;101268.44;5094665;28;19923;-74
2023/07/26 06:04:58;;;;;;;;;;;;;;;12.80;100.00;101273.34;5094356;28;19920;-74
2023/07/26 06:07:23;;;;;;;;;;;;;;;12.98;100.00;101276.13;5076510;28;19946;-75
2023/07/26 06:09:48;;;;;;;;;;;;;;;13.15;100.00;101277.19;5076468;28;19921;-74
2023/07/26 06:12:14;;;;;;;;;;;;;;;13.32;100.00;101278.28;5094439;28;19920;-73
2023/07/26 06:14:39;;;;;;;;;;;;;;;13.47;100.00;101284.00;5094502;28;19924;-75
2023/07/26 06:17:04;;;;;;;;;;;;;;;13.58;100.00;101286.47;5094408;28;20050;-75
2023/07/26 06:19:30;;;;;;;;;;;;;;;13.67;100.00;101285.56;5076286;28;19959;-75
2023/07/26 06:21:56;;;;;;;;;;;;;;;13.86;100.00;101289.16;5093828;28;19917;-75
2023/07/26 06:24:22;;;;;;;;;;;;;;;14.17;100.00;101288.84;5094033;28;19920;-73
2023/07/26 06:26:48;;;;;;;;;;;;;;;14.52;100.00;101296.00;5094012;28;20010;-74
2023/07/26 06:29:13;;;;;;;;;;;;;;;14.94;100.00;101294.53;5094081;28;19959;-74
2023/07/26 06:31:38;;;;;;;;;;;;;;;15.20;100.00;101293.69;5094210;28;20373;-73
2023/07/26 06:34:03;;;;;;;;;;;;;;;15.37;100.00;101287.41;5093766;28;19920;-74
2023/07/26 06:36:29;;;;;;;;;;;;;;;15.42;100.00;101295.84;5093913;28;20326;-74
2023/07/26 06:38:54;;;;;;;;;;;;;;;15.38;100.00;101293.63;5093634;28;19920;-75
2023/07/26 06:41:19;;;;;;;;;;;;;;;15.31;100.00;101296.94;5093299;28;19997;-75
2023/07/26 06:43:45;;;;;;;;;;;;;;;15.36;100.00;101292.94;5094120;28;19920;-77
2023/07/26 06:46:10;;;;;;;;;;;;;;;15.41;100.00;101291.47;5093550;28;19933;-74
2023/07/26 06:48:35;;;;;;;;;;;;;;;15.50;100.00;101303.91;5093979;28;19981;-75
2023/07/26 06:51:04;;;;;;;;;;;;;;;15.64;100.00;101302.44;5075121;28;19916;-74
2023/07/26 06:53:30;;;;;;;;;;;;;;;15.76;100.00;101297.66;5094313;28;19951;-75
2023/07/26 06:55:58;;;;;;;;;;;;;;;15.83;100.00;101300.56;5093536;28;20359;-75
2023/07/26 06:58:24;;;;;;;;;;;;;;;15.76;100.00;101305.69;5092702;28;20368;-74
2023/07/26 07:00:49;;;;;;;;;;;;;;;15.74;100.00;101305.03;5093576;28;19916;-74
2023/07/26 07:03:14;;;;;;;;;;;;;;;15.78;100.00;101309.09;5093454;28;19920;-75
2023/07/26 07:05:40;;;;;;;;;;;;;;;15.89;100.00;101307.97;5094011;28;19983;-74
2023/07/26 07:08:05;;;;;;;;;;;;;;;16.03;100.00;101306.47;5075240;28;19964;-74
2023/07/26 07:10:30;;;;;;;;;;;;;;;16.15;100.00;101301.66;5093401;28;19928;-75
2023/07/26 07:12:55;;;;;;;;;;;;;;;16.29;100.00;101308.25;5093085;28;19925;-75
2023/07/26 07:15:21;;;;;;;;;;;;;;;16.42;100.00;101307.75;5093354;28;19985;-74
2023/07/26 07:17:46;;;;;;;;;;;;;;;16.55;100.00;101308.91;5093913;28;20371;-75
2023/07/26 07:20:11;;;;;;;;;;;;;;;16.67;100.00;101309.44;5093221;28;19924;-75
2023/07/26 07:22:36;;;;;;;;;;;;;;;16.81;100.00;101315.13;5074889;28;19920;-74
2023/07/26 07:25:05;;;;;;;;;;;;;;;16.81;100.00;101313.31;5093051;28;19920;-75
2023/07/26 07:27:30;;;;;;;;;;;;;;;16.90;100.00;101316.88;5093350;28;19923;-75
2023/07/26 07:29:55;;;;;;;;;;;;;;;17.05;100.00;101317.03;5093377;28;19920;-76
2023/07/26 07:32:20;;;;;;;;;;;;;;;17.07;100.00;101325.75;5093309;28;19974;-73
2023/07/26 07:34:46;;;;;;;;;;;;;;;17.03;100.00;101324.41;5094485;28;20330;-77
2023/07/26 07:37:11;;;;;;;;;;;;;;;17.04;100.00;101326.09;5059100;28;19955;-76
2023/07/26 07:39:37;;;;;;;;;;;;;;;16.94;100.00;101328.94;5094653;28;19963;-79
2023/07/26 07:42:02;;;;;;;;;;;;;;;16.91;100.00;101324.75;5094011;28;19923;-78
2023/07/26 07:44:28;;;;;;;;;;;;;;;17.00;100.00;101333.63;5094289;28;19916;-76
2023/07/26 07:46:53;;;;;;;;;;;;;;;17.23;100.00;101330.25;5094074;28;19916;-78
2023/07/26 07:49:19;;;;;;;;;;;;;;;17.50;100.00;101331.69;5094033;28;20280;-81
2023/07/26 07:51:44;;;;;;;;;;;;;;;17.63;100.00;101340.06;5074215;28;19925;-78
2023/07/26 07:54:09;;;;;;;;;;;;;;;17.65;100.00;101344.44;5093534;28;20295;-79
2023/07/26 07:56:34;;;;;;;;;;;;;;;17.59;100.00;101343.28;5093871;28;20382;-79
2023/07/26 07:59:00;;;;;;;;;;;;;;;17.50;100.00;101342.47;5075404;28;20376;-78
2023/07/26 08:01:25;;;;;;;;;;;;;;;17.53;100.00;101346.66;5093341;28;19920;-79
2023/07/26 08:03:50;;;;;;;;;;;;;;;17.52;100.00;101345.81;5093785;28;20010;-80
2023/07/26 08:06:17;;;;;;;;;;;;;;;17.58;100.00;101338.91;5093258;28;19927;-79
2023/07/26 08:08:42;;;;;;;;;;;;;;;17.78;100.00;101342.88;5093624;28;19924;-79
2023/07/26 08:11:07;;;;;;;;;;;;;;;17.97;100.00;101341.66;5095546;28;19917;-78
2023/07/26 08:13:33;;;;;;;;;;;;;;;18.23;100.00;101343.19;5079524;28;19923;-79
2023/07/26 08:15:58;;;;;;;;;;;;;;;18.44;100.00;101342.53;5097169;28;19920;-77
2023/07/26 08:18:23;;;;;;;;;;;;;;;18.59;100.00;101339.91;5096597;28;20296;-80
2023/07/26 08:20:49;;;;;;;;;;;;;;;18.61;100.00;101348.66;5096991;28;20276;-79
2023/07/26 08:23:14;;;;;;;;;;;;;;;18.68;100.00;101352.31;5078977;28;19928;-76
2023/07/26 08:25:40;;;;;;;;;;;;;;;18.70;100.00;101352.13;5078640;28;19920;-76
2023/07/26 08:28:05;;;;;;;;;;;;;;;18.72;100.00;101360.88;5096595;28;19920;-76
2023/07/26 08:30:30;;;;;;;;;;;;;;;18.86;100.00;101353.88;5096446;28;19923;-76
2023/07/26 08:32:56;;;;;;;;;;;;;;;18.91;100.00;101356.88;5096522;28;19974;-76
2023/07/26 08:35:21;;;;;;;;;;;;;;;19.13;100.00;101357.03;5096591;28;19963;-76
2023/07/26 08:37:46;;;;;;;;;;;;;;;19.34;100.00;101353.63;5096980;28;19923;-76
2023/07/26 08:40:12;;;;;;;;;;;;;;;19.36;100.00;101362.34;5096405;28;19946;-76
2023/07/26 08:42:37;;;;;;;;;;;;;;;19.13;100.00;101360.56;5096805;28;20324;-76
2023/07/26 08:45:04;;;;;;;;;;;;;;;19.35;100.00;101356.13;5096001;28;19923;-76
2023/07/26 08:47:30;;;;;;;;;;;;;;;19.42;100.00;101358.91;5078243;28;19922;-76
2023/07/26 08:49:56;;;;;;;;;;;;;;;19.48;100.00;101371.69;5096271;28;19916;-74
2023/07/26 08:52:21;;;;;;;;;;;;;;;19.68;100.00;101365.72;5095417;28;19926;-75
2023/07/26 08:54:47;;;;;;;;;;;;;;;19.98;99.70;101357.63;5096658;28;19924;-75
2023/07/26 08:57:14;;;;;;;;;;;;;;;19.79;100.00;101364.44;5095930;28;19924;-75
2023/07/26 08:59:39;;;;;;;;;;;;;;;19.26;100.00;101367.16;5095728;28;19978;-75
2023/07/26 09:02:05;;;;;;;;;;;;;;;18.90;100.00;101365.13;5096002;28;20375;-75
2023/07/26 09:04:31;;;;;;;;;;;;;;;19.11;100.00;101356.34;5096655;28;19928;-76
2023/07/26 09:07:00;;;;;;;;;;;;;;;19.78;100.00;101357.38;5096209;28;20356;-75
2023/07/26 09:09:25;;;;;;;;;;;;;;;20.12;99.90;101364.03;5095327;28;20376;-75
2023/07/26 09:11:51;;;;;;;;;;;;;;;19.60;85.31;101363.13;5096171;28;19916;-75
2023/07/26 09:14:17;;;;;;;;;;;;;;;19.01;97.27;101362.03;5095574;28;20445;-75
2023/07/26 09:16:43;;;;;;;;;;;;;;;19.19;100.00;101357.13;5095649;28;19920;-75
2023/07/26 09:19:08;;;;;;;;;;;;;;;19.69;91.78;101354.75;5077520;28;19969;-75
2023/07/26 09:21:35;;;;;;;;;;;;;;;20.13;91.51;101353.03;5076995;28;19927;-75
2023/07/26 09:24:01;;;;;;;;;;;;;;;19.80;96.53;101349.94;5095560;28;19920;-77
2023/07/26 09:26:37;;;;;;;;;;;;;;;19.95;99.90;101358.00;5095491;28;19916;-75
2023/07/26 09:29:06;;;;;;;;;;;;;;;20.67;89.78;101359.88;5095375;28;19920;-76
2023/07/26 09:31:32;;;;;;;;;;;;;;;21.07;82.28;101359.38;5095965;28;19916;-74
2023/07/26 09:33:59;;;;;;;;;;;;;;;21.20;76.29;101369.47;5095274;28;19918;-74
2023/07/26 09:36:24;;;;;;;;;;;;;;;21.27;81.15;101359.53;5095205;28;19916;-74
2023/07/26 09:38:49;;;;;;;;;;;;;;;21.57;70.48;101365.59;5095176;28;20272;-73
2023/07/26 09:41:25;;;;;;;;;;;;;;;21.56;69.52;101360.38;5076995;28;19943;-75
2023/07/26 09:43:51;;;;;;;;;;;;;;;21.62;71.08;101357.72;5095018;28;20007;-75
2023/07/26 09:46:17;;;;;;;;;;;;;;;21.29;72.95;101369.13;5076937;28;19966;-74
2023/07/26 09:48:58;;;;;;;;;;;;;;;21.26;79.16;101363.28;5094817;28;19948;-74
2023/07/26 09:51:25;;;;;;;;;;;;;;;20.67;72.89;101367.97;5094620;28;19938;-74
2023/07/26 09:53:52;;;;;;;;;;;;;;;20.74;77.45;101362.66;5076178;28;20277;-73
2023/07/26 09:56:17;;;;;;;;;;;;;;;21.54;82.78;101368.72;5095220;28;19920;-74
2023/07/26 09:58:46;;;;;;;;;;;;;;;22.12;68.40;101364.81;5094955;28;20363;-74
2023/07/26 10:01:12;;;;;;;;;;;;;;;22.48;67.49;101366.38;5076567;28;20379;-74
2023/07/26 10:03:39;;;;;;;;;;;;;;;23.16;62.65;101362.72;5094588;28;19916;-75
2023/07/26 10:06:04;;;;;;;;;;;;;;;23.31;60.90;101363.31;5094380;28;19990;-75
2023/07/26 10:08:30;;;;;;;;;;;;;;;23.59;57.93;101368.50;5094712;28;19920;-75
2023/07/26 10:10:56;;;;;;;;;;;;;;;23.27;58.87;101372.09;5094744;28;19924;-74
2023/07/26 10:13:21;;;;;;;;;;;;;;;23.31;57.94;101381.50;5094490;28;19920;-76
2023/07/26 10:15:49;;;;;;;;;;;;;;;23.07;57.48;101378.34;5094444;28;20265;-75
2023/07/26 10:18:14;;;;;;;;;;;;;;;22.80;61.22;101380.22;5094133;28;19916;-75
2023/07/26 10:20:41;;;;;;;;;;;;;;;23.24;61.07;101365.19;5094335;28;19920;-74
2023/07/26 10:23:09;;;;;;;;;;;;;;;23.63;57.89;101376.22;5094010;28;19942;-74
2023/07/26 10:25:35;;;;;;;;;;;;;;;23.89;55.76;101383.47;5094315;28;19927;-75
2023/07/26 10:28:02;;;;;;;;;;;;;;;23.45;56.28;101382.31;5094423;28;19920;-75
2023/07/26 10:30:27;;;;;;;;;;;;;;;22.51;61.39;101380.38;5094243;28;19920;-74
2023/07/26 10:32:53;;;;;;;;;;;;;;;22.58;63.37;101383.09;5093503;28;19962;-75
2023/07/26 10:35:32;;;;;;;;;;;;;;;23.11;60.86;101382.34;5094226;28;19920;-73
2023/07/26 10:37:58;;;;;;;;;;;;;;;23.68;57.56;101381.84;5094684;28;19973;-73
2023/07/26 10:40:30;;;;;;;;;;;;;;;23.87;57.44;101378.25;5094572;28;19927;-74
2023/07/26 10:42:56;;;;;;;;;;;;;;;24.23;58.02;101386.88;5093950;28;19942;-75
2023/07/26 10:45:38;;;;;;;;;;;;;;;23.83;56.38;101381.59;5093685;28;20432;-74
2023/07/26 10:48:03;;;;;;;;;;;;;;;23.89;56.84;101388.91;5094517;28;19916;-74
2023/07/26 10:50:28;;;;;;;;;;;;;;;22.92;59.32;101389.41;5093440;28;20397;-75
2023/07/26 10:52:54;;;;;;;;;;;;;;;22.54;60.95;101382.69;5093670;28;20348;-75
2023/07/26 10:55:23;;;;;;;;;;;;;;;22.42;66.89;101397.03;5074474;28;20333;-77
2023/07/26 10:57:48;;;;;;;;;;;;;;;22.63;67.24;101385.19;5093987;28;19924;-78
2023/07/26 11:00:18;;;;;;;;;;;;;;;23.18;60.61;101394.00;5093980;28;19923;-79
2023/07/26 11:02:48;;;;;;;;;;;;;;;23.56;57.73;101390.63;5093331;28;20348;-78
2023/07/26 11:05:16;;;;;;;;;;;;;;;24.03;56.28;101393.22;5093840;28;19924;-79
2023/07/26 11:07:47;;;;;;;;;;;;;;;23.73;53.18;101398.34;5093410;28;19966;-76
2023/07/26 11:10:17;;;;;;;;;;;;;;;23.73;57.59;101393.72;5075957;28;20309;-77
2023/07/26 11:12:43;;;;;;;;;;;;;;;24.19;52.34;101388.38;5092857;28;20323;-83
2023/07/26 11:15:08;;;;;;;;;;;;;;;24.04;54.11;101391.38;5075545;28;19965;-76
2023/07/26 11:17:33;;;;;;;;;;;;;;;23.35;54.14;101397.16;5059482;28;20245;-76
2023/07/26 11:19:58;;;;;;;;;;;;;;;23.78;55.39;101406.66;5093700;28;20254;-77
2023/07/26 11:22:24;;;;;;;;;;;;;;;24.51;51.71;101394.66;5092962;28;19961;-79
2023/07/26 11:24:50;;;;;;;;;;;;;;;25.32;50.14;101400.41;5093462;28;19999;-76
2023/07/26 11:27:15;;;;;;;;;;;;;;;25.84;46.35;101397.34;5075925;28;19916;-77
2023/07/26 11:29:41;;;;;;;;;;;;;;;26.34;46.98;101399.88;5093195;28;20410;-78
2023/07/26 11:32:07;;;;;;;;;;;;;;;26.76;46.35;101392.81;5093227;28;19916;-78
2023/07/26 11:34:32;;;;;;;;;;;;;;;26.80;44.93;101399.44;5093260;28;19924;-78
2023/07/26 11:37:07;;;;;;;;;;;;;;;25.14;46.79;101402.00;5092989;28;20371;-77
2023/07/26 11:39:34;;;;;;;;;;;;;;;24.20;47.05;101407.19;5092960;28;19967;-78
2023/07/26 11:41:59;;;;;;;;;;;;;;;24.40;50.20;101403.53;5093269;28;19994;-78
2023/07/26 11:44:25;;;;;;;;;;;;;;;24.27;50.63;101404.41;5076115;28;19954;-76
2023/07/26 11:46:50;;;;;;;;;;;;;;;24.73;50.12;101406.06;5097436;28;20011;-77
2023/07/26 11:49:20;;;;;;;;;;;;;;;24.60;50.17;101400.72;5096925;28;20252;-75
2023/07/26 11:51:45;;;;;;;;;;;;;;;24.59;51.36;101410.78;5078336;28;19978;-77
2023/07/26 11:54:11;;;;;;;;;;;;;;;23.79;49.84;101419.22;5096674;28;19920;-77
2023/07/26 11:56:37;;;;;;;;;;;;;;;22.97;52.26;101411.31;5096570;28;19928;-79
2023/07/26 11:59:02;;;;;;;;;;;;;;;22.40;54.23;101412.69;5096718;28;19990;-77
2023/07/26 12:01:28;;;;;;;;;;;;;;;22.84;54.49;101419.44;5096759;28;19916;-79
2023/07/26 12:03:54;;;;;;;;;;;;;;;23.53;51.44;101420.94;5097104;28;19923;-78
2023/07/26 12:06:22;;;;;;;;;;;;;;;23.97;52.79;101412.28;5097064;28;20338;-79
2023/07/26 12:08:47;;;;;;;;;;;;;;;25.08;50.87;101421.09;5097229;28;19962;-76
2023/07/26 12:11:23;;;;;;;;;;;;;;;25.78;49.36;101420.91;5096753;28;19916;-78
2023/07/26 12:13:48;;;;;;;;;;;;;;;26.87;46.62;101416.56;5096852;28;19928;-77
2023/07/26 12:16:14;;;;;;;;;;;;;;;26.83;47.53;101429.03;5097065;28;19920;-77
2023/07/26 12:18:50;;;;;;;;;;;;;;;25.61;46.44;101419.81;5097060;28;20359;-77
2023/07/26 12:21:15;;;;;;;;;;;;;;;25.31;47.79;101420.53;5096647;28;20011;-75
2023/07/26 12:23:51;;;;;;;;;;;;;;;25.89;49.81;101413.84;5096847;28;19962;-75